Caprock, New Mexico
Current Conditions -  °F | °C
As of 11:51 PM on Thursday 18 Dec 2014 (Local Time) from KROW Reporting Station
Clear Clear  
Wind Chill: 35°   Ceiling: Unl
Heat Index: 39°   Visibility: 10mi
Dew Point: 34°   Wind: 6mph
Humidity: 82%   Direction: 280°W
Pressure: 30.1"   Gusts: NA
Location:  33.39°N, 103.71°W
Report Text: KROW 190651Z 28005KT 10SM CLR 04/01 A3010 RMK AO2 SLP172 T00390011 401331022
Loading
Personal Weather Stations






























Interactive Weather Map New forecast layout! Learn more

10-Day Weather Forecast

Advertisements
Track Severe Weather on mobile